Sonic Adventure (DX): Time Rankings

Records: Times | Rings | Scores | Races | Bosses | Freestyle
Leaders: Times | Rings | Scores | Races | Bosses | Freestyle | Overall
Rank Player Percent Points Date
1 Gamepro011 99.1% 50 03-23-20
2 Sonicspeedruner 97.8% 124 03-23-20
3 Niczur 95.5% 257 03-23-20
4 Jawzun 93.8% 359 03-23-20
5 Dashjump 93.7% 362 03-23-20
6 DarkPolarNight 92.8% 416 03-23-20
7 Nim 91.7% 481 03-23-20
8 drminus 90.6% 544 03-23-20
9 F-Man 90.5% 552 03-23-20
10 THC98 90.1% 576 03-23-20
11 ike6252 88.2% 686 03-23-20
12 Avento128bits 87.9% 703 03-23-20
13 francisco 87.3% 734 03-23-20
14 DarkspinesSonic 86.9% 758 03-23-20
15 ethmar 86.9% 763 03-23-20
16 Marth 86.8% 768 03-23-20
17 frankoredstrato 85.5% 843 03-23-20
18 chainchump 83.9% 937 03-23-20
19 TheRealShadnic 83.8% 939 03-23-20
20 Paragod 82.6% 1013 03-23-20
21 HyperSonic7701 82.5% 1019 03-23-20
22 Calfd 82.1% 1042 03-23-20
23 Coolfansonic 79.6% 1187 03-23-20
24 InferSaime 79.2% 1209 03-23-20
25 Stefan 77.9% 1285 03-23-20
26 xXMegaManXx 77.8% 1288 03-23-20
27 PfoSonic 77.3% 1318 03-23-20
28 bertin 75.6% 1420 03-23-20
29 yoshifan 75.3% 1437 03-23-20
30 Dave Cramer 73.5% 1539 03-23-20
31 RPGnutter 73.4% 1548 03-23-20
32 sonicam 71.7% 1645 03-23-20
33 Cybrax 71.3% 1668 03-23-20
34 Dekuboy 70.3% 1729 03-23-20
35 Ring Rush 68.8% 1814 03-23-20
36 mike89 68.0% 1862 03-23-20
37 NintenDan 67.8% 1875 03-23-20
38 chaos shadow 67.7% 1880 03-23-20
39 a_moustache 66.6% 1940 03-23-20
40 SkyLights 64.3% 2075 03-23-20
41 iden1 63.9% 2098 03-23-20
42 Combo 62.9% 2160 03-23-20
43 SADXTryHard 60.4% 2302 03-23-20
44 P1 Pause 59.9% 2332 03-23-20
45 WeegeeZV 58.8% 2396 03-23-20
46 Groudon199 58.1% 2439 03-23-20
47 AxlThunder 57.8% 2458 03-23-20
48 Game_Complete 57.4% 2478 03-23-20
49 Shadow Jacky 57.2% 2490 03-23-20
50 VMU Player Banned 56.5% 2529 03-23-20
51 Thorn 56.1% 2555 03-23-20
52 SB737 55.0% 2621 03-23-20
53 The Knuckles Chao 54.8% 2632 03-23-20
54 SadisticMystic 54.6% 2640 03-23-20
55 Chao_Fan 54.6% 2644 03-23-20
56 Parax 54.3% 2659 03-23-20
57 Mastakirby 54.1% 2670 03-23-20
58 KinkyCadence 53.7% 2692 03-23-20
59 mauserman 53.7% 2696 03-23-20
60 LittleBigness 53.5% 2703 03-23-20
61 OmegaDJ 53.5% 2706 03-23-20
62 Psyknux 53.4% 2714 03-23-20
63 Auriman1 52.9% 2743 03-23-20
64 magnum12 52.8% 2748 03-23-20
65 Turbos 52.3% 2774 03-23-20
66 GerbilSoft 51.7% 2813 03-23-20
67 GreatStar 51.4% 2826 03-23-20
68 Webber3000 51.0% 2851 03-23-20
69 Hipertails12 50.6% 2872 03-23-20
70 N 50.3% 2895 03-23-20
71 SPVLABS 48.8% 2981 03-23-20
72 James_Bertolli 48.0% 3027 03-23-20
73 Cream147 47.6% 3049 03-23-20
74 welldooder64 46.8% 3096 03-23-20
75 Skylace 46.7% 3100 03-23-20
76 Omega Rafael Santos 46.6% 3105 03-23-20
77 Diamond 46.4% 3118 03-23-20
78 Quartz 46.4% 3119 03-23-20
79 Psymar 46.2% 3131 03-23-20
80 SonicWinDX 45.6% 3163 03-23-20
81 teamblackarms 45.1% 3196 03-23-20
82 Cyan Ryan 44.6% 3227 03-23-20
83 Andrea Ritsu 44.5% 3232 03-23-20
84 buddychaos0415 44.3% 3243 03-23-20
85 SilverSonic 43.8% 3268 03-23-20
86 paulie9990 43.3% 3299 03-23-20
87 SilvertheAlmighty 43.2% 3306 03-23-20
88 itsPersonnal 42.7% 3335 03-23-20
89 metanightmare22 42.4% 3355 03-23-20
90 CoEmpathy 40.6% 3455 03-23-20
91 lordmetalsonic 40.2% 3481 03-23-20
92 Arch 39.8% 3505 03-23-20
93 Termon 39.0% 3549 03-23-20
94 videogamemaster777 38.9% 3555 03-23-20
95 supersonicfan 38.6% 3576 03-23-20
96 Drakodan 38.1% 3601 03-23-20
97 Kanimayo_Jp 37.9% 3614 03-23-20
98 LilZero 37.7% 3627 03-23-20
99 supersonic465 37.4% 3646 03-23-20
100 FuzZerd 37.3% 3649 03-23-20
101 JamminX42 36.8% 3677 03-23-20
102 eggFL 36.8% 3681 03-23-20
103 BigAL49 36.5% 3698 03-23-20
104 Don 36.3% 3710 03-23-20
105 danieldude 36.0% 3727 03-23-20
106 Fr3nZy 35.1% 3777 03-23-20
107 Siavash Tazari 35.1% 3780 03-23-20
108 Zurggriff 34.9% 3789 03-23-20
109 f0rever_zer0 34.2% 3830 03-23-20
110 Cod4Scopes 34.1% 3834 03-23-20
111 Austinf 33.4% 3875 03-23-20
112 Therio 33.2% 3891 03-23-20
113 LinksDarkArrows 33.1% 3893 03-23-20
114 elecmouse101 32.4% 3934 03-23-20
115 Staf 32.1% 3954 03-23-20
116 ModifiedMonkee 31.9% 3965 03-23-20
117 R3FR4G 31.8% 3967 03-23-20
118 MiStEr_ShAoLiN 31.7% 3976 03-23-20
119 BrokenArthritis 31.3% 3996 03-23-20
120 Twilisailor 31.3% 3997 03-23-20
121 videogamer1014 31.2% 4006 03-23-20
122 Xia 30.7% 4036 03-23-20
123 AC-Tygo 30.4% 4049 03-23-20
124 welshmoose05 30.2% 4061 03-23-20
125 OddCook 29.6% 4098 03-23-20
126 The Great Lord Mick 29.2% 4120 03-23-20
127 Mcshuggets 29.0% 4130 03-23-20
128 Aitamen 28.9% 4136 03-23-20
129 Maxinfamily 28.8% 4145 03-23-20
130 joecoolgames 28.5% 4162 03-23-20
131 Matt_TY 28.4% 4167 03-23-20
132 dabestgamer 28.1% 4186 03-23-20
133 Irregular Zero 28.0% 4192 03-23-20
134 SuperBlitzCraig 28.0% 4193 03-23-20
135 SuperSonic101 27.0% 4247 03-23-20
136 Shadowthegreat 26.8% 4262 03-23-20
137 superjupi 26.7% 4264 03-23-20
138 Hunters13 26.6% 4270 03-23-20
139 thewaytodawnnn 26.4% 4286 03-23-20
140 Rolken 26.4% 4287 03-23-20
141 sonamyfan666 25.9% 4314 03-23-20
142 SaviourDC 25.8% 4320 03-23-20
143 iarebored 25.8% 4321 03-23-20
144 koinu93 25.7% 4324 03-23-20
145 Spinballwizard 25.5% 4337 03-23-20
146 SonicKnuckles 25.5% 4338 03-23-20
147 EngiNerd 24.4% 4401 03-23-20
147 SonicAD 24.4% 4401 03-23-20
149 adf 24.4% 4402 03-23-20
150 Megaman EXE565 23.5% 4453 03-23-20
151 The T 23.4% 4461 03-23-20
152 Sonic Singularity 22.7% 4497 03-23-20
153 Pokemonmaster888 22.6% 4506 03-23-20
154 Platformer 22.6% 4508 03-23-20
155 SeaWolf 22.4% 4519 03-23-20
156 timpkmn89 22.2% 4530 03-23-20
157 Swift Hobo 22.2% 4531 03-23-20
158 Rickyman48 21.4% 4578 03-23-20
158 Sondow 21.4% 4578 03-23-20
160 FoxBoy 20.7% 4615 03-23-20
161 Sm4sh 20.7% 4616 03-23-20
162 KitsuneYamaro 20.7% 4617 03-23-20
163 TFEC Headshot 20.4% 4635 03-23-20
164 Jerzia 20.2% 4644 03-23-20
165 Kogen Player Banned 19.6% 4678 03-23-20
166 Badlex727 19.6% 4680 03-23-20
166 Starlight Sable 19.6% 4680 03-23-20
168 IsisDazs 19.0% 4715 03-23-20
169 Powerjohn25 18.8% 4729 03-23-20
170 HyperSonic64 18.6% 4736 03-23-20
171 crazy1993 18.5% 4744 03-23-20
172 andres430 18.2% 4761 03-23-20
173 SonicU260 17.2% 4822 03-23-20
174 Swinkly 17.0% 4829 03-23-20
175 MPit08 16.8% 4842 03-23-20
176 sonicd5 16.8% 4844 03-23-20
177 iSonicKid2K 16.2% 4877 03-23-20
178 dShadow 16.0% 4893 03-23-20
179 Miles9999 15.7% 4910 03-23-20
180 Cutiefox 15.6% 4912 03-23-20
181 Chawkk 15.6% 4915 03-23-20
182 Monkeh 15.3% 4930 03-23-20
183 Crispian 15.3% 4931 03-23-20
184 DaDude 14.9% 4956 03-23-20
185 Drflash55 14.5% 4975 03-23-20
186 Bass 14.2% 4996 03-23-20
187 Yish 14.1% 5002 03-23-20
188 Cruizer 14.0% 5004 03-23-20
189 Destroyer121121 14.0% 5005 03-23-20
190 zapp 13.9% 5012 03-23-20
191 neaolas 13.9% 5014 03-23-20
191 UninspiredUsername 13.9% 5014 03-23-20
193 superiorsonic 13.7% 5025 03-23-20
194 gamefreak1292 13.5% 5035 03-23-20
195 Cooljay 13.0% 5064 03-23-20
196 Sora_yx 13.0% 5065 03-23-20
197 Chaos_Overlord 12.4% 5102 03-23-20
198 Valfore 12.1% 5120 03-23-20
199 Dage4Aquatic 11.8% 5137 03-23-20
200 GarnetPrincess 11.7% 5140 03-23-20
201 ShinigamiMachine 11.6% 5148 03-23-20
202 soniccoloursunleashed 11.5% 5153 03-23-20
203 Sonicsuperstar1 11.1% 5177 03-23-20
204 FocusSight64 10.7% 5197 03-23-20
205 Werey 10.6% 5202 03-23-20
206 booo95 10.5% 5209 03-23-20
207 Mo Player Banned 10.4% 5214 03-23-20
208 SirTobbii 10.4% 5218 03-23-20
209 Jua Rever 10.3% 5225 03-23-20
210 sonicspeed 10.2% 5228 03-23-20
211 Venick409 9.6% 5264 03-23-20
212 nman36 9.4% 5276 03-23-20
212 Sithwarrior26 9.4% 5276 03-23-20
214 ingx24 8.9% 5305 03-23-20
215 CyberShadow 8.8% 5308 03-23-20
216 dekki1234 8.5% 5327 03-23-20
217 Fozer 8.3% 5338 03-23-20
218 Egor305 8.2% 5342 03-23-20
219 Regano1000 8.1% 5348 03-23-20
220 Colomb_30 8.1% 5350 03-23-20
221 1stKirbyever 7.9% 5361 03-23-20
222 nuckrieg 7.6% 5377 03-23-20
223 TimTH 7.6% 5379 03-23-20
224 Brian_pso 7.5% 5383 03-23-20
225 douglas 7.3% 5398 03-23-20
226 TakaRikka 7.2% 5403 03-23-20
227 Th4tN1nj4Turtl3 7.2% 5404 03-23-20
228 Zip 7.0% 5414 03-23-20
229 Mariosonic15 6.7% 5430 03-23-20
229 wheatrich 6.7% 5430 03-23-20
231 MStitomix 6.6% 5440 03-23-20
232 ieatatsonic 6.5% 5445 03-23-20
233 HermitHelmet 6.4% 5447 03-23-20
234 niscool 6.4% 5450 03-23-20
235 Cort_pso 6.2% 5461 03-23-20
236 Got4n 6.1% 5467 03-23-20
237 Triseena 6.0% 5475 03-23-20
238 Jose_15 5.8% 5482 03-23-20
239 Artie 5.6% 5493 03-23-20
240 BlankTH 5.6% 5495 03-23-20
240 SuperSonicfan9595 5.6% 5495 03-23-20
242 Ace747 5.4% 5510 03-23-20
243 HHNNBBHHN 5.3% 5511 03-23-20
244 Richied 5.2% 5518 03-23-20
245 Paixii 5.2% 5521 03-23-20
246 Aiko 5.1% 5527 03-23-20
247 BallzeH 4.8% 5542 03-23-20
247 FSSRandomvids 4.8% 5542 03-23-20
249 slade23 4.8% 5544 03-23-20
250 PsyBorg 4.7% 5547 03-23-20
251 Jamixesa 4.7% 5548 03-23-20
252 Mankster101 4.7% 5549 03-23-20
253 ArcticDragon 4.7% 5550 03-23-20
254 BecauseWarAnvil 4.6% 5556 03-23-20
255 Nickson98 4.5% 5560 03-23-20
256 Crydio 4.4% 5563 03-23-20
257 TheUltraBlur 4.4% 5568 03-23-20
258 MarewBFN 4.2% 5580 03-23-20
259 stanski 4.1% 5583 03-23-20
260 tal39h 4.0% 5590 03-23-20
261 knuckles_sonic8 3.9% 5597 03-23-20
262 Blue Infamy 3.8% 5599 03-23-20
263 p0ker 3.8% 5602 03-23-20
264 ALundstrom10 3.8% 5603 03-23-20
265 ErrortheCucco 3.6% 5610 03-23-20
266 Rikum22 3.6% 5613 03-23-20
267 ArthurVGCP 3.5% 5617 03-23-20
268 sonic1001 3.5% 5621 03-23-20
269 TheChaosEmeraIds 3.3% 5627 03-23-20
270 AJSIV 3.3% 5628 03-23-20
270 syco1098 3.3% 5628 03-23-20
272 IDGeek121 3.3% 5632 03-23-20
272 Sonic the Hedgehod16 3.3% 5632 03-23-20
274 ASINISTERTACO 3.1% 5640 03-23-20
275 sonicfan9 3.1% 5643 03-23-20
276 Zethor 3.0% 5650 03-23-20
277 themachoman202 2.9% 5655 03-23-20
278 MK 2.8% 5660 03-23-20
279 Fivavoa 2.7% 5664 03-23-20
280 Mr. Jones 2.7% 5666 03-23-20
281 djmat 2.6% 5668 03-23-20
282 arcfx1985 2.6% 5669 03-23-20
283 BlackArmsShadow 2.6% 5670 03-23-20
284 Sonique Hedgehog 2.6% 5673 03-23-20
285 ptorflaxendrosis 2.5% 5674 03-23-20
286 FlandreScarlet9999vr 2.5% 5676 03-23-20
287 Zeldocto 2.5% 5679 03-23-20
288 BeeAwwb 2.4% 5685 03-23-20
289 KaM Mark MaK 2.3% 5687 03-23-20
290 ShadouZaHejjihoggu 2.3% 5690 03-23-20
291 darkstarblaze 2.2% 5696 03-23-20
292 Sonic The Star 2.1% 5698 03-23-20
293 darkersupershadic 2.1% 5699 03-23-20
294 SpiritDragon1995 2.1% 5700 03-23-20
295 Sarger001 2.0% 5706 03-23-20
295 sonic29887 2.0% 5706 03-23-20
297 Grady219 2.0% 5708 03-23-20
298 Jawaah 1.9% 5713 03-23-20
298 shadowblast63 Player Banned 1.9% 5713 03-23-20
300 Antek 1.8% 5717 03-23-20
301 Klaus 1.8% 5719 03-23-20
302 BioShadow 1.7% 5725 03-23-20
303 IcKY 1.5% 5735 03-23-20
304 SkyBon 1.4% 5741 03-23-20
305 Shanekilz 1.4% 5743 03-23-20
306 isaihtb11 1.3% 5746 03-23-20
307 OhNoes! 1.3% 5747 03-23-20
308 zaktu40 1.3% 5749 03-23-20
309 gaara1234 1.2% 5752 03-23-20
309 S-MS32X-S 1.2% 5752 03-23-20
311 MastaToken 1.1% 5759 03-23-20
312 Mister_Slick 1.0% 5763 03-23-20
313 Sonic06Fan 1.0% 5766 03-23-20
314 Rush Hero 0.9% 5768 03-23-20
315 ChaosNexuss 0.9% 5769 03-23-20
316 oTaiIilLsS 0.8% 5773 03-23-20
317 SonicMega167 0.8% 5774 03-23-20
318 gamed00d 0.8% 5777 03-23-20
318 SilverK 0.8% 5777 03-23-20
320 Burningskull123 0.5% 5793 03-23-20
321 Heroes_Hater 0.5% 5795 03-23-20
322 Sonicontherun 0.3% 5804 03-23-20
323 antiwwe 0.2% 5810 03-23-20
324 Iwannabelink 0.2% 5812 03-23-20
325 Genuine Hedgehog 0.1% 5814 03-23-20
326 dragondragon18 0.1% 5818 03-23-20
327 SonicK100 0.1% 5819 03-23-20
328 Tyrouble 0.0% 5824 03-23-20
329 LancexExWx 0.0% 5825 03-23-20
329 neji_hyuuga 0.0% 5825 03-23-20
329 Over 0.0% 5825 03-23-20
329 sdj6707 Player Banned 0.0% 5825 03-23-20
329 Tran Sonic Fan Player Banned 0.0% 5825 03-23-20

This page is using the New Data Table System. [FUTURE]

Game ID: 3 | Category ID: 1
Hits: 9,799 | Hits This Month: 57 | DB Calls: 24 | Mem Usage: 1.05 MB | Time: 0.05s | Printable

The Sonic Center v3.9
Copyright 2003-2011 by The Sonic Center Team.